Time;durP1;ratioP1;P1;durP2;ratioP2;P2;SDS_P1;SDS_P2;PMS_P1;PMS_P2;Temp;Humidity;BMP_temperature;BMP_pressure;BME280_temperature;BME280_humidity;BME280_pressure;Samples;Min_cycle;Max_cycle;Signal;HPM_P1;HPM_P2
2024/03/30 00:00:04;;;;;;;1.33;0.70;;;19.00;99.90;;;;;;10401805;28;20064;-58
2024/03/30 00:05:09;;;;;;;5.38;0.98;;;18.60;99.90;;;;;;10398073;28;20111;-56
2024/03/30 00:10:13;;;;;;;1.67;0.95;;;19.00;99.90;;;;;;10392649;28;20069;-55
2024/03/30 00:15:15;;;;;;;1.85;0.90;;;18.50;99.90;;;;;;10413072;28;20045;-56
2024/03/30 00:20:17;;;;;;;;;;;17.80;99.90;;;;;;10401209;28;20053;-57
2024/03/30 00:25:23;;;;;;;1.17;0.67;;;17.80;99.90;;;;;;10405965;28;20241;-53
2024/03/30 00:30:25;;;;;;;3.85;1.25;;;18.00;99.90;;;;;;10400097;28;20056;-56
2024/03/30 00:35:27;;;;;;;4.97;1.98;;;16.90;99.90;;;;;;10412257;28;20088;-53
2024/03/30 00:40:31;;;;;;;2.28;1.40;;;15.10;99.90;;;;;;10398676;28;20053;-55
2024/03/30 00:45:36;;;;;;;2.67;1.17;;;14.40;99.90;;;;;;10390791;28;20057;-58
2024/03/30 00:50:38;;;;;;;1.25;1.00;;;14.60;99.90;;;;;;10382611;28;20061;-55
2024/03/30 00:55:42;;;;;;;3.25;1.50;;;15.60;99.90;;;;;;10411718;28;20056;-55
2024/03/30 01:00:44;;;;;;;2.40;1.35;;;16.10;99.90;;;;;;10406138;28;20060;-57
2024/03/30 01:05:48;;;;;;;3.80;1.10;;;17.00;99.90;;;;;;10409854;28;20060;-56
2024/03/30 01:11:01;;;;;;;4.07;1.42;;;17.30;99.90;;;;;;10392629;28;20483;-56
2024/03/30 01:16:12;;;;;;;2.80;1.50;;;17.40;99.90;;;;;;10391029;28;20046;-59
2024/03/30 01:21:17;;;;;;;2.55;1.70;;;17.40;99.90;;;;;;10391448;28;20152;-56
2024/03/30 01:26:23;;;;;;;2.13;0.70;;;17.60;99.90;;;;;;10398257;28;20053;-56
2024/03/30 01:31:25;;;;;;;1.55;1.20;;;17.60;99.90;;;;;;10408153;28;20060;-53
2024/03/30 01:36:27;;;;;;;;;;;17.60;99.90;;;;;;10397139;28;20052;-58
2024/03/30 01:41:31;;;;;;;0.90;0.60;;;17.60;99.90;;;;;;10407420;28;19921;-57
2024/03/30 01:46:38;;;;;;;2.25;0.80;;;17.60;99.90;;;;;;10409803;28;20050;-58
2024/03/30 01:51:41;;;;;;;1.42;0.82;;;17.60;99.90;;;;;;10383921;28;20683;-57
2024/03/30 01:56:44;;;;;;;0.85;0.70;;;17.70;99.90;;;;;;10398033;28;20049;-58
2024/03/30 02:01:47;;;;;;;1.73;0.80;;;17.70;99.90;;;;;;10411208;28;20045;-57
2024/03/30 02:06:49;;;;;;;1.05;0.65;;;17.60;99.90;;;;;;10403180;28;20049;-57
2024/03/30 02:11:53;;;;;;;1.40;0.95;;;17.60;99.90;;;;;;10392553;28;20056;-59
2024/03/30 02:16:57;;;;;;;0.82;0.82;;;17.70;99.90;;;;;;10386674;28;20107;-57
2024/03/30 02:22:01;;;;;;;2.22;1.10;;;17.80;99.90;;;;;;10419354;28;20080;-54
2024/03/30 02:27:06;;;;;;;2.55;0.90;;;17.70;99.90;;;;;;10407048;28;20057;-55
2024/03/30 02:32:15;;;;;;;3.03;1.17;;;17.70;99.90;;;;;;10416966;28;20048;-58
2024/03/30 02:37:18;;;;;;;5.38;1.02;;;17.70;99.90;;;;;;10414863;28;20546;-55
2024/03/30 02:42:21;;;;;;;1.60;1.00;;;17.70;99.90;;;;;;10410128;28;20046;-53
2024/03/30 02:47:26;;;;;;;1.67;1.00;;;17.70;99.90;;;;;;10404042;28;20094;-56
2024/03/30 02:52:28;;;;;;;3.70;1.10;;;17.60;99.90;;;;;;10392132;28;20480;-57
2024/03/30 02:57:32;;;;;;;1.85;1.27;;;17.70;99.90;;;;;;10398349;28;20045;-57
2024/03/30 03:02:34;;;;;;;2.03;1.30;;;17.80;99.90;;;;;;10425313;28;20049;-55
2024/03/30 03:07:37;;;;;;;1.42;0.80;;;17.70;99.90;;;;;;10414445;28;20412;-57
2024/03/30 03:12:42;;;;;;;4.78;1.40;;;17.60;99.90;;;;;;10394722;28;20429;-56
2024/03/30 03:17:44;;;;;;;1.42;1.00;;;16.60;99.90;;;;;;10415387;28;20053;-56
2024/03/30 03:22:50;;;;;;;2.58;0.90;;;17.00;99.90;;;;;;10412645;28;20050;-56
2024/03/30 03:27:56;;;;;;;2.17;1.00;;;16.80;99.90;;;;;;10407692;28;20068;-53
2024/03/30 03:33:00;;;;;;;1.90;1.40;;;16.90;99.90;;;;;;10403713;28;20053;-55
2024/03/30 03:38:02;;;;;;;1.58;0.88;;;16.50;99.90;;;;;;10409399;28;20623;-57
2024/03/30 03:43:06;;;;;;;2.33;1.10;;;16.90;99.90;;;;;;10401597;28;20053;-56
2024/03/30 03:48:10;;;;;;;1.40;0.88;;;17.00;99.90;;;;;;10422080;28;20052;-57
2024/03/30 03:53:18;;;;;;;2.90;1.15;;;17.20;99.90;;;;;;10416923;28;20041;-57
2024/03/30 03:58:23;;;;;;;2.65;1.85;;;17.30;99.90;;;;;;10423915;28;20049;-55
2024/03/30 04:03:25;;;;;;;1.35;1.00;;;17.50;99.90;;;;;;10422842;28;20049;-54
2024/03/30 04:08:27;;;;;;;2.38;1.20;;;17.40;99.90;;;;;;10424361;28;20164;-55
2024/03/30 04:13:31;;;;;;;2.13;0.80;;;17.30;99.90;;;;;;10404926;28;20044;-55
2024/03/30 04:18:33;;;;;;;2.65;1.55;;;17.40;99.90;;;;;;10407072;28;20057;-54
2024/03/30 04:23:35;;;;;;;;;;;17.30;99.90;;;;;;10403629;28;20045;-55
2024/03/30 04:28:39;;;;;;;1.60;1.40;;;17.30;99.90;;;;;;10416978;28;19921;-56
2024/03/30 04:33:47;;;;;;;1.33;0.90;;;17.50;99.90;;;;;;10409325;28;20060;-56
2024/03/30 04:38:49;;;;;;;2.75;1.20;;;17.30;99.90;;;;;;10409193;28;20491;-57
2024/03/30 04:43:54;;;;;;;0.00;0.00;;;17.20;99.90;;;;;;10412812;28;20107;-56
2024/03/30 04:48:56;;;;;;;0.10;0.10;;;17.20;99.90;;;;;;10426025;28;20060;-56
2024/03/30 04:54:01;;;;;;;0.00;0.00;;;17.20;99.90;;;;;;10431884;28;20071;-56
2024/03/30 04:59:04;;;;;;;0.08;0.08;;;17.10;99.90;;;;;;10423954;28;20143;-58
2024/03/30 05:04:06;;;;;;;0.00;0.00;;;17.00;99.90;;;;;;10431262;28;20052;-57
2024/03/30 05:09:15;;;;;;;0.00;0.00;;;16.90;99.90;;;;;;10425816;28;20072;-54
2024/03/30 05:14:18;;;;;;;0.00;0.00;;;16.90;99.90;;;;;;10428378;28;20041;-55
2024/03/30 05:24:38;;;;;;;0.00;0.00;;;16.90;99.90;;;;;;10427283;28;21357;-56
2024/03/30 05:29:42;;;;;;;0.00;0.00;;;17.00;99.90;;;;;;10426167;28;20045;-57
2024/03/30 05:34:45;;;;;;;0.13;0.13;;;17.00;99.90;;;;;;10425451;28;20045;-56
2024/03/30 05:39:47;;;;;;;0.00;0.00;;;17.00;99.90;;;;;;10422004;28;20443;-55
2024/03/30 05:44:52;;;;;;;0.00;0.00;;;17.00;99.90;;;;;;10433929;28;20042;-57
2024/03/30 05:49:55;;;;;;;0.00;0.00;;;16.90;99.90;;;;;;10437749;28;20164;-57
2024/03/30 05:54:57;;;;;;;0.00;0.00;;;16.90;99.90;;;;;;10437916;28;20049;-58
2024/03/30 06:00:03;;;;;;;0.00;0.00;;;17.00;99.90;;;;;;10429441;28;20049;-57
2024/03/30 06:05:07;;;;;;;0.00;0.00;;;17.00;99.90;;;;;;10410238;28;20121;-57
2024/03/30 06:10:12;;;;;;;0.00;0.00;;;16.90;99.90;;;;;;10402040;28;20050;-57
2024/03/30 06:15:16;;;;;;;0.00;0.00;;;16.90;99.90;;;;;;10398922;28;20093;-53
2024/03/30 06:20:18;;;;;;;0.05;0.05;;;17.00;99.90;;;;;;10398700;28;20554;-56
2024/03/30 06:25:20;;;;;;;1.45;1.20;;;16.90;99.90;;;;;;10405958;28;20060;-57
2024/03/30 06:30:24;;;;;;;0.00;0.00;;;16.90;99.90;;;;;;10403467;28;20705;-57
2024/03/30 06:35:31;;;;;;;0.10;0.10;;;17.00;99.90;;;;;;10400907;28;20045;-57
2024/03/30 06:45:56;;;;;;;0.03;0.03;;;17.00;99.90;;;;;;10398909;28;20397;-57
2024/03/30 06:50:58;;;;;;;0.03;0.03;;;17.10;99.90;;;;;;10401417;28;20061;-58
2024/03/30 06:56:00;;;;;;;0.00;0.00;;;17.10;99.90;;;;;;10398328;28;20046;-56
2024/03/30 07:01:04;;;;;;;0.00;0.00;;;17.00;99.90;;;;;;10394974;28;20456;-58
2024/03/30 07:06:06;;;;;;;0.13;0.13;;;17.10;99.90;;;;;;10393741;28;20045;-58
2024/03/30 07:11:08;;;;;;;0.00;0.00;;;17.00;99.90;;;;;;10385254;28;20071;-57
2024/03/30 07:16:12;;;;;;;0.00;0.00;;;17.00;99.90;;;;;;10387711;28;20457;-58
2024/03/30 07:21:14;;;;;;;0.00;0.00;;;17.00;99.90;;;;;;10397192;28;20487;-56
2024/03/30 07:26:16;;;;;;;0.00;0.00;;;17.10;99.90;;;;;;10405842;28;20077;-57
2024/03/30 07:31:20;;;;;;;0.00;0.00;;;17.10;99.90;;;;;;10406859;28;20053;-55
2024/03/30 07:36:23;;;;;;;0.65;0.63;;;17.10;99.90;;;;;;10399088;28;20056;-56
2024/03/30 07:41:24;;;;;;;0.00;0.00;;;17.20;99.90;;;;;;10404472;28;20056;-56
2024/03/30 07:46:28;;;;;;;0.00;0.00;;;17.40;99.90;;;;;;10404321;28;20049;-57
2024/03/30 07:51:30;;;;;;;0.00;0.00;;;17.50;99.90;;;;;;10404613;28;20049;-56
2024/03/30 07:56:34;;;;;;;0.00;0.00;;;17.50;99.90;;;;;;10401295;28;20038;-58
2024/03/30 08:01:37;;;;;;;0.52;0.52;;;17.60;99.90;;;;;;10401179;28;20480;-56
2024/03/30 08:06:39;;;;;;;0.00;0.00;;;17.60;99.90;;;;;;10399483;28;20046;-56
2024/03/30 08:11:43;;;;;;;0.00;0.00;;;17.60;99.90;;;;;;10398343;28;20486;-55
2024/03/30 08:16:48;;;;;;;0.20;0.20;;;17.60;99.90;;;;;;10391990;28;20058;-60
2024/03/30 08:21:50;;;;;;;0.22;0.22;;;17.60;99.90;;;;;;10398133;28;20652;-56
2024/03/30 08:26:52;;;;;;;0.00;0.00;;;17.60;99.90;;;;;;10397465;28;20042;-56
2024/03/30 08:31:59;;;;;;;0.00;0.00;;;17.60;99.90;;;;;;10392844;28;20112;-56
2024/03/30 08:37:04;;;;;;;0.05;0.05;;;17.60;99.90;;;;;;10394139;28;20141;-58
2024/03/30 08:42:06;;;;;;;0.10;0.10;;;17.70;99.90;;;;;;10389978;28;20069;-56
2024/03/30 08:47:11;;;;;;;0.00;0.00;;;17.70;99.90;;;;;;10389630;28;20104;-56
2024/03/30 08:52:15;;;;;;;0.00;0.00;;;17.60;99.90;;;;;;10408235;28;20048;-58
2024/03/30 08:57:17;;;;;;;0.10;0.10;;;18.20;99.90;;;;;;10409986;28;20081;-55
2024/03/30 09:02:21;;;;;;;0.30;0.30;;;18.30;99.90;;;;;;10396990;28;20068;-57
2024/03/30 09:07:25;;;;;;;1.10;1.00;;;18.40;99.90;;;;;;10404313;28;20045;-58
2024/03/30 09:12:27;;;;;;;0.30;0.30;;;18.50;99.90;;;;;;10413130;28;20359;-56
2024/03/30 09:17:31;;;;;;;0.00;0.00;;;18.40;99.90;;;;;;10418564;28;20045;-58
2024/03/30 09:22:33;;;;;;;0.30;0.30;;;18.40;99.90;;;;;;10425764;28;20418;-56
2024/03/30 09:27:41;;;;;;;0.08;0.08;;;18.10;99.90;;;;;;10383276;28;20703;-57
2024/03/30 09:32:45;;;;;;;1.77;1.08;;;18.30;99.90;;;;;;10384765;28;20058;-63
2024/03/30 09:37:47;;;;;;;0.30;0.30;;;17.90;99.90;;;;;;10390531;28;20671;-58
2024/03/30 09:42:50;;;;;;;0.00;0.00;;;17.80;99.90;;;;;;10387222;28;20108;-57
2024/03/30 09:47:56;;;;;;;;;;;17.80;99.90;;;;;;10396504;28;20179;-59
2024/03/30 09:53:00;;;;;;;0.52;0.52;;;17.80;99.90;;;;;;10386705;28;19996;-59
2024/03/30 09:58:06;;;;;;;0.00;0.00;;;17.70;99.90;;;;;;10377164;28;20153;-61
2024/03/30 10:03:16;;;;;;;0.00;0.00;;;17.80;99.90;;;;;;10380018;28;20065;-58
2024/03/30 10:08:24;;;;;;;0.22;0.22;;;17.70;99.90;;;;;;10387250;28;20736;-58
2024/03/30 10:13:31;;;;;;;0.03;0.03;;;17.60;99.90;;;;;;10384229;28;20220;-57
2024/03/30 10:18:37;;;;;;;0.45;0.45;;;17.50;99.90;;;;;;10377315;28;20049;-57
2024/03/30 10:23:39;;;;;;;0.10;0.10;;;17.30;99.90;;;;;;10372458;28;20137;-59
2024/03/30 10:28:42;;;;;;;0.00;0.00;;;17.50;99.90;;;;;;10382742;28;20088;-60
2024/03/30 10:33:47;;;;;;;0.00;0.00;;;17.60;99.90;;;;;;10392603;28;20040;-59
2024/03/30 10:38:50;;;;;;;0.00;0.00;;;17.60;99.90;;;;;;10395846;28;20059;-60
2024/03/30 10:43:52;;;;;;;;;;;17.00;99.90;;;;;;10382871;28;20076;-58
2024/03/30 10:48:56;;;;;;;0.10;0.10;;;17.20;99.90;;;;;;10384269;28;19920;-57
2024/03/30 10:54:05;;;;;;;0.00;0.00;;;17.40;99.90;;;;;;10395912;28;20531;-58
2024/03/30 10:59:11;;;;;;;0.20;0.20;;;17.50;99.90;;;;;;10382967;28;20061;-59
2024/03/30 11:04:18;;;;;;;0.20;0.20;;;17.30;99.90;;;;;;10383666;28;20449;-59
2024/03/30 11:09:21;;;;;;;0.10;0.10;;;17.40;99.90;;;;;;10379890;28;20843;-61
2024/03/30 11:14:27;;;;;;;0.20;0.20;;;17.20;99.90;;;;;;10371755;28;20050;-61
2024/03/30 11:19:43;;;;;;;0.10;0.10;;;17.10;99.90;;;;;;10380389;28;20041;-58
2024/03/30 11:24:55;;;;;;;0.65;0.65;;;17.30;99.90;;;;;;10375818;28;20056;-58
2024/03/30 11:30:04;;;;;;;0.20;0.20;;;16.40;99.90;;;;;;10386930;28;20049;-59
2024/03/30 11:35:16;;;;;;;0.10;0.10;;;15.80;99.90;;;;;;10382434;28;20076;-57
2024/03/30 11:40:26;;;;;;;0.00;0.00;;;16.10;99.90;;;;;;10379933;28;20163;-59
2024/03/30 11:45:34;;;;;;;0.30;0.30;;;16.60;99.90;;;;;;10382307;28;20155;-60
2024/03/30 11:50:38;;;;;;;0.20;0.20;;;16.20;99.90;;;;;;10375077;28;20052;-57
2024/03/30 11:55:43;;;;;;;0.35;0.35;;;16.20;99.90;;;;;;10378275;28;20296;-59
2024/03/30 12:00:55;;;;;;;0.28;0.28;;;16.10;99.90;;;;;;10380298;28;20144;-59
2024/03/30 12:06:00;;;;;;;0.00;0.00;;;15.50;99.90;;;;;;10382191;28;20059;-58
2024/03/30 12:11:04;;;;;;;0.10;0.10;;;15.10;99.90;;;;;;10377604;28;20050;-58
2024/03/30 12:16:06;;;;;;;0.88;0.88;;;15.10;99.90;;;;;;10380567;28;20053;-60
2024/03/30 12:21:13;;;;;;;0.65;0.65;;;15.10;99.90;;;;;;10381779;28;20064;-57
2024/03/30 12:26:17;;;;;;;0.10;0.10;;;15.60;99.90;;;;;;10383754;28;20115;-59
2024/03/30 12:31:19;;;;;;;0.10;0.10;;;16.00;99.90;;;;;;10381754;28;20197;-60
2024/03/30 12:36:23;;;;;;;0.00;0.00;;;15.70;99.90;;;;;;10389707;28;20045;-57
2024/03/30 12:41:28;;;;;;;0.10;0.10;;;15.50;99.90;;;;;;10392215;28;20069;-60
2024/03/30 12:46:30;;;;;;;0.10;0.10;;;16.40;99.90;;;;;;10392912;28;20076;-57
2024/03/30 12:51:35;;;;;;;0.00;0.00;;;16.30;99.90;;;;;;10385238;28;20042;-57
2024/03/30 12:56:38;;;;;;;0.45;0.45;;;16.60;99.90;;;;;;10389100;28;20056;-57
2024/03/30 13:01:40;;;;;;;0.00;0.00;;;17.00;99.90;;;;;;10388678;28;20731;-59
2024/03/30 13:06:44;;;;;;;0.00;0.00;;;16.50;99.90;;;;;;10380472;28;20045;-59
2024/03/30 13:11:47;;;;;;;0.10;0.10;;;15.20;99.90;;;;;;10388044;28;20136;-59
2024/03/30 13:16:51;;;;;;;0.00;0.00;;;15.50;99.90;;;;;;10392573;28;20176;-57
2024/03/30 13:21:57;;;;;;;1.92;1.13;;;16.80;99.90;;;;;;10373693;28;20053;-60
2024/03/30 13:26:59;;;;;;;0.00;0.00;;;15.80;99.90;;;;;;10383771;28;20171;-59
2024/03/30 13:32:01;;;;;;;0.10;0.10;;;15.60;99.90;;;;;;10396167;28;20045;-57
2024/03/30 13:37:05;;;;;;;0.00;0.00;;;15.00;99.90;;;;;;10398618;28;20455;-59
2024/03/30 13:42:08;;;;;;;0.10;0.10;;;15.90;99.90;;;;;;10387832;28;20049;-60
2024/03/30 13:47:10;;;;;;;;;;;14.60;99.90;;;;;;10395525;28;20516;-58
2024/03/30 13:52:13;;;;;;;0.20;0.20;;;14.50;99.90;;;;;;10413888;28;19990;-56
2024/03/30 13:57:17;;;;;;;0.10;0.10;;;14.90;99.90;;;;;;10422098;28;20948;-58
2024/03/30 14:02:19;;;;;;;0.10;0.10;;;15.50;99.90;;;;;;10401122;28;20048;-60
2024/03/30 14:07:23;;;;;;;0.00;0.00;;;15.70;99.90;;;;;;10393404;28;20556;-59
2024/03/30 14:12:25;;;;;;;3.25;1.08;;;16.40;99.90;;;;;;10392466;28;20053;-56
2024/03/30 14:17:29;;;;;;;0.10;0.10;;;16.00;99.90;;;;;;10395528;28;20053;-57
2024/03/30 14:22:32;;;;;;;0.10;0.10;;;16.20;99.90;;;;;;10389402;28;20065;-59
2024/03/30 14:27:34;;;;;;;0.10;0.10;;;15.00;99.90;;;;;;10391274;28;20088;-60
2024/03/30 14:32:37;;;;;;;0.52;0.52;;;16.10;99.90;;;;;;10391081;28;20055;-58
2024/03/30 14:37:40;;;;;;;0.35;0.35;;;16.50;99.90;;;;;;10377625;28;20052;-58
2024/03/30 14:42:42;;;;;;;0.10;0.10;;;16.90;99.90;;;;;;10398415;28;20412;-58
2024/03/30 14:47:46;;;;;;;0.10;0.10;;;17.10;99.90;;;;;;10388511;28;20396;-60
2024/03/30 14:52:49;;;;;;;0.00;0.00;;;17.20;99.90;;;;;;10382915;28;20053;-60
2024/03/30 14:57:54;;;;;;;0.10;0.10;;;17.30;99.90;;;;;;10380436;28;20057;-57
2024/03/30 15:02:56;;;;;;;0.00;0.00;;;17.40;99.90;;;;;;10382671;28;20068;-58
2024/03/30 15:08:01;;;;;;;0.15;0.15;;;17.70;99.90;;;;;;10387791;28;20531;-60
2024/03/30 15:13:03;;;;;;;0.25;0.25;;;18.10;99.90;;;;;;10387224;28;20046;-58
2024/03/30 15:18:05;;;;;;;0.60;0.35;;;18.30;99.90;;;;;;10387639;28;20085;-59
2024/03/30 15:23:09;;;;;;;0.63;0.63;;;18.20;99.90;;;;;;10383567;28;20056;-59
2024/03/30 15:28:11;;;;;;;0.00;0.00;;;18.20;99.90;;;;;;10388687;28;20047;-61
2024/03/30 15:33:13;;;;;;;0.00;0.00;;;18.20;99.90;;;;;;10385609;28;20060;-58
2024/03/30 15:38:18;;;;;;;2.30;0.95;;;18.30;99.90;;;;;;10381066;28;20762;-59
2024/03/30 15:43:23;;;;;;;0.10;0.10;;;18.20;99.90;;;;;;10368975;28;20048;-59
2024/03/30 15:48:26;;;;;;;0.35;0.35;;;18.10;99.90;;;;;;10383766;28;20045;-59
2024/03/30 15:53:31;;;;;;;0.20;0.20;;;18.00;99.90;;;;;;10378084;28;20889;-62
2024/03/30 15:58:34;;;;;;;0.00;0.00;;;17.90;99.90;;;;;;10373101;28;20092;-59
2024/03/30 16:03:38;;;;;;;0.00;0.00;;;18.00;99.90;;;;;;10367872;28;20061;-60
2024/03/30 16:08:41;;;;;;;0.00;0.00;;;18.00;99.90;;;;;;10378221;28;20064;-60
2024/03/30 16:13:45;;;;;;;0.00;0.00;;;18.10;99.90;;;;;;10377174;28;20540;-60
2024/03/30 16:18:47;;;;;;;0.00;0.00;;;17.40;99.90;;;;;;10374320;28;20056;-58
2024/03/30 16:23:53;;;;;;;0.25;0.25;;;17.60;99.90;;;;;;10386329;28;20046;-59
2024/03/30 16:28:56;;;;;;;0.10;0.10;;;17.30;99.90;;;;;;10383177;28;20057;-59
2024/03/30 16:33:58;;;;;;;1.13;1.00;;;17.50;99.90;;;;;;10376884;28;20053;-60
2024/03/30 16:39:04;;;;;;;0.00;0.00;;;17.80;99.90;;;;;;10375541;28;20084;-59
2024/03/30 16:44:06;;;;;;;0.10;0.10;;;17.60;99.90;;;;;;10379903;28;20817;-59
2024/03/30 16:49:09;;;;;;;0.00;0.00;;;17.60;99.90;;;;;;10376735;28;20057;-58
2024/03/30 16:54:12;;;;;;;0.00;0.00;;;17.70;99.90;;;;;;10378856;28;20060;-58
2024/03/30 16:59:15;;;;;;;0.00;0.00;;;17.30;99.90;;;;;;10375560;28;20098;-59
2024/03/30 17:04:18;;;;;;;0.00;0.00;;;17.30;99.90;;;;;;10374292;28;20199;-56
2024/03/30 17:09:21;;;;;;;1.85;0.85;;;17.30;99.90;;;;;;10379618;28;20042;-60
2024/03/30 17:14:24;;;;;;;0.10;0.10;;;17.60;99.90;;;;;;10381663;28;20869;-59
2024/03/30 17:19:25;;;;;;;0.20;0.20;;;17.20;99.90;;;;;;10379685;28;20131;-56
2024/03/30 17:24:30;;;;;;;0.10;0.10;;;16.80;99.90;;;;;;10383391;28;20053;-59
2024/03/30 17:29:33;;;;;;;0.00;0.00;;;17.20;99.90;;;;;;10384219;28;20069;-57
2024/03/30 17:34:35;;;;;;;0.10;0.10;;;17.20;99.90;;;;;;10384508;28;20060;-58
2024/03/30 17:39:39;;;;;;;0.00;0.00;;;17.60;99.90;;;;;;10377606;28;20195;-59
2024/03/30 17:44:42;;;;;;;0.10;0.10;;;17.90;99.90;;;;;;10385373;28;20053;-61
2024/03/30 17:49:46;;;;;;;0.00;0.00;;;18.10;99.90;;;;;;10384358;28;20044;-58
2024/03/30 17:54:50;;;;;;;0.00;0.00;;;18.40;99.90;;;;;;10399393;28;20045;-55
2024/03/30 17:59:52;;;;;;;0.00;0.00;;;18.50;99.90;;;;;;10393718;28;20056;-57
2024/03/30 18:04:59;;;;;;;0.00;0.00;;;18.70;99.90;;;;;;10391328;28;20067;-60
2024/03/30 18:10:02;;;;;;;0.00;0.00;;;18.90;99.90;;;;;;10395464;28;20095;-59
2024/03/30 18:15:05;;;;;;;0.30;0.30;;;19.00;99.90;;;;;;10383552;28;20072;-58
2024/03/30 18:20:08;;;;;;;0.20;0.20;;;19.00;99.90;;;;;;10385537;28;20140;-58
2024/03/30 18:25:11;;;;;;;0.00;0.00;;;18.90;99.90;;;;;;10381709;28;20074;-58
2024/03/30 18:30:13;;;;;;;0.00;0.00;;;18.90;99.90;;;;;;10381880;28;20083;-59
2024/03/30 18:35:15;;;;;;;0.00;0.00;;;18.60;99.90;;;;;;10382184;28;20049;-59
2024/03/30 18:40:19;;;;;;;0.03;0.03;;;18.00;99.90;;;;;;10387014;28;20079;-58
2024/03/30 18:45:21;;;;;;;0.28;0.28;;;17.70;99.90;;;;;;10390924;28;20104;-58
2024/03/30 18:50:23;;;;;;;0.10;0.10;;;17.40;99.90;;;;;;10390655;28;20060;-56
2024/03/30 18:55:26;;;;;;;0.00;0.00;;;17.20;99.90;;;;;;10391853;28;20547;-59
2024/03/30 19:00:30;;;;;;;4.20;1.48;;;17.10;99.90;;;;;;10392126;28;20061;-58
2024/03/30 19:05:33;;;;;;;0.10;0.10;;;16.70;99.90;;;;;;10391818;28;20062;-58
2024/03/30 19:10:36;;;;;;;0.00;0.00;;;16.50;99.90;;;;;;10385919;28;20054;-57
2024/03/30 19:15:39;;;;;;;0.17;0.17;;;16.40;99.90;;;;;;10378069;28;20110;-55
2024/03/30 19:20:41;;;;;;;1.00;0.57;;;16.30;99.90;;;;;;10386527;28;20088;-56
2024/03/30 19:25:44;;;;;;;2.53;1.75;;;16.00;99.90;;;;;;10377892;28;20053;-53
2024/03/30 19:30:53;;;;;;;9.32;2.13;;;16.30;99.90;;;;;;10386519;28;20041;-57
2024/03/30 19:35:56;;;;;;;13.50;1.90;;;17.00;99.90;;;;;;10386152;28;20054;-55
2024/03/30 19:41:08;;;;;;;0.55;0.55;;;17.10;99.90;;;;;;10383480;28;20049;-56
2024/03/30 19:46:10;;;;;;;0.00;0.00;;;17.10;99.90;;;;;;10389875;28;20550;-57
2024/03/30 19:51:12;;;;;;;0.38;0.22;;;17.00;99.90;;;;;;10389964;28;20127;-57
2024/03/30 19:56:16;;;;;;;0.38;0.38;;;17.00;99.90;;;;;;10387436;28;20057;-56
2024/03/30 20:01:20;;;;;;;0.45;0.45;;;17.00;99.90;;;;;;10386719;28;20084;-57
2024/03/30 20:06:23;;;;;;;0.52;0.45;;;16.90;99.90;;;;;;10386336;28;20354;-55
2024/03/30 20:11:27;;;;;;;0.17;0.17;;;16.90;99.90;;;;;;10388349;28;20057;-56
2024/03/30 20:16:37;;;;;;;1.17;1.08;;;16.80;99.90;;;;;;10396055;28;20049;-58
2024/03/30 20:21:41;;;;;;;0.28;0.28;;;17.20;99.90;;;;;;10388746;28;20061;-59
2024/03/30 20:26:47;;;;;;;0.43;0.43;;;17.10;99.90;;;;;;10380934;28;20050;-59
2024/03/30 20:31:50;;;;;;;0.55;0.52;;;16.80;99.90;;;;;;10396416;28;20049;-59
2024/03/30 20:36:53;;;;;;;0.00;0.00;;;16.80;99.90;;;;;;10390197;28;20045;-60
2024/03/30 20:41:57;;;;;;;0.00;0.00;;;16.60;99.90;;;;;;10393993;28;20053;-58
2024/03/30 20:47:03;;;;;;;0.08;0.08;;;16.40;99.90;;;;;;10397427;28;20736;-59
2024/03/30 20:52:05;;;;;;;0.10;0.10;;;16.40;99.90;;;;;;10396466;28;20057;-58
2024/03/30 20:57:12;;;;;;;0.00;0.00;;;16.30;99.90;;;;;;10397863;28;20440;-59
2024/03/30 21:02:15;;;;;;;0.10;0.10;;;16.20;99.90;;;;;;10398740;28;20064;-58
2024/03/30 21:07:17;;;;;;;0.10;0.10;;;16.10;99.90;;;;;;10399686;28;20049;-58
2024/03/30 21:12:20;;;;;;;1.40;1.27;;;16.20;99.90;;;;;;10395210;28;20045;-58
2024/03/30 21:17:22;;;;;;;1.10;1.02;;;16.10;99.90;;;;;;10395371;28;20141;-58
2024/03/30 21:22:27;;;;;;;12.80;1.65;;;16.10;99.90;;;;;;10398464;28;20056;-57
2024/03/30 21:27:34;;;;;;;0.82;0.43;;;15.90;99.90;;;;;;10399714;28;20049;-55
2024/03/30 21:32:38;;;;;;;0.90;0.90;;;15.90;99.90;;;;;;10398315;28;20128;-57
2024/03/30 21:37:40;;;;;;;0.40;0.40;;;15.90;99.90;;;;;;10397161;28;20046;-57
2024/03/30 21:42:44;;;;;;;1.30;1.20;;;15.80;99.90;;;;;;10402669;28;20056;-59
2024/03/30 21:47:46;;;;;;;0.28;0.28;;;15.80;99.90;;;;;;10407596;28;20135;-56
2024/03/30 21:52:52;;;;;;;0.32;0.32;;;15.80;99.90;;;;;;10404791;28;20103;-57
2024/03/30 21:57:55;;;;;;;0.00;0.00;;;15.80;99.90;;;;;;10397787;28;20042;-58
2024/03/30 22:03:00;;;;;;;0.30;0.30;;;15.90;99.90;;;;;;10402463;28;20049;-55
2024/03/30 22:08:04;;;;;;;0.20;0.20;;;15.70;99.90;;;;;;10409016;28;20107;-55
2024/03/30 22:13:10;;;;;;;1.55;1.25;;;15.50;99.90;;;;;;10393837;28;20508;-55
2024/03/30 22:18:12;;;;;;;1.55;1.45;;;15.50;99.90;;;;;;10389976;28;20045;-57
2024/03/30 22:23:17;;;;;;;0.80;0.67;;;15.40;99.90;;;;;;10398898;28;20065;-56
2024/03/30 22:28:24;;;;;;;1.50;0.93;;;15.30;99.90;;;;;;10402708;28;20475;-56
2024/03/30 22:33:26;;;;;;;0.55;0.55;;;15.40;99.90;;;;;;10398722;28;20057;-55
2024/03/30 22:38:28;;;;;;;4.70;2.13;;;15.40;99.90;;;;;;10399241;28;20133;-55
2024/03/30 22:43:33;;;;;;;0.40;0.40;;;15.20;99.90;;;;;;10404718;28;20533;-57
2024/03/30 22:48:36;;;;;;;0.15;0.15;;;15.30;99.90;;;;;;10407887;28;20045;-54
2024/03/30 22:53:41;;;;;;;0.93;0.85;;;15.10;99.90;;;;;;10392084;28;20739;-56
2024/03/30 22:58:50;;;;;;;0.60;0.60;;;15.00;99.90;;;;;;10407728;28;20064;-57
2024/03/30 23:03:57;;;;;;;0.38;0.38;;;15.00;99.90;;;;;;10402016;28;20117;-56
2024/03/30 23:09:00;;;;;;;4.43;2.47;;;14.90;99.90;;;;;;10415555;28;20071;-55
2024/03/30 23:14:06;;;;;;;0.90;0.90;;;15.00;99.90;;;;;;10406906;28;20058;-56
2024/03/30 23:19:12;;;;;;;0.50;0.50;;;15.00;99.90;;;;;;10403954;28;20107;-53
2024/03/30 23:24:17;;;;;;;0.20;0.20;;;15.00;99.90;;;;;;10403762;28;20057;-54
2024/03/30 23:29:21;;;;;;;0.55;0.55;;;15.10;99.90;;;;;;10392238;28;20045;-55
2024/03/30 23:34:23;;;;;;;0.38;0.38;;;15.00;99.90;;;;;;10395425;28;20160;-56
2024/03/30 23:39:26;;;;;;;0.30;0.30;;;15.00;99.90;;;;;;10399606;28;20053;-56
2024/03/30 23:44:30;;;;;;;5.22;1.58;;;15.00;99.90;;;;;;10399771;28;20076;-52
2024/03/30 23:49:38;;;;;;;1.02;1.02;;;15.00;99.90;;;;;;10391854;28;20448;-54
2024/03/30 23:54:46;;;;;;;0.43;0.43;;;14.80;99.90;;;;;;10394507;28;20072;-57
2024/03/30 23:59:50;;;;;;;0.20;0.20;;;14.70;99.90;;;;;;10391176;28;20465;-55
